Time;durP1;ratioP1;P1;durP2;ratioP2;P2;SDS_P1;SDS_P2;PMS_P1;PMS_P2;Temp;Humidity;BMP_temperature;BMP_pressure;BME280_temperature;BME280_humidity;BME280_pressure;Samples;Min_cycle;Max_cycle;Signal;HPM_P1;HPM_P2
2023/06/19 00:01:51;;;;;;;12.63;8.02;;;;;;;-140.66;100.00;55571.53;5134741;27;20023;-73
2023/06/19 00:04:36;;;;;;;15.27;7.88;;;;;;;-140.66;100.00;55571.53;5134979;27;20106;-74
2023/06/19 00:07:22;;;;;;;16.15;8.35;;;;;;;-140.66;100.00;55571.53;5119114;27;20029;-74
2023/06/19 00:10:08;;;;;;;20.42;8.20;;;;;;;-140.66;100.00;55571.53;5134664;27;20110;-74
2023/06/19 00:12:54;;;;;;;14.32;8.40;;;;;;;-140.66;100.00;55571.53;5134735;27;20023;-74
2023/06/19 00:15:39;;;;;;;12.07;8.43;;;;;;;-140.66;100.00;55571.53;5134740;27;20019;-74
2023/06/19 00:18:26;;;;;;;17.77;7.97;;;;;;;-140.66;100.00;55571.53;5134748;27;20027;-73
2023/06/19 00:21:11;;;;;;;16.88;8.77;;;;;;;-140.66;100.00;55571.53;5134593;27;20468;-74
2023/06/19 00:23:57;;;;;;;19.27;8.48;;;;;;;-140.66;100.00;55571.53;5134958;27;20038;-73
2023/06/19 00:26:43;;;;;;;19.27;9.15;;;;;;;-140.66;100.00;55571.53;5134767;27;20091;-75
2023/06/19 00:29:29;;;;;;;18.17;9.15;;;;;;;-140.66;100.00;55571.53;5134259;27;20023;-75
2023/06/19 00:32:15;;;;;;;23.38;9.93;;;;;;;-140.66;100.00;55571.53;5135167;27;20356;-76
2023/06/19 00:35:02;;;;;;;19.45;8.98;;;;;;;-140.66;100.00;55571.53;5134162;27;20023;-75
2023/06/19 00:37:47;;;;;;;17.75;8.70;;;;;;;-140.66;100.00;55571.53;5135097;27;20381;-75
2023/06/19 00:40:34;;;;;;;16.98;8.25;;;;;;;-140.66;100.00;55571.53;5134355;27;20027;-75
2023/06/19 00:43:19;;;;;;;21.17;8.77;;;;;;;-140.66;100.00;55571.53;5135296;27;20038;-75
2023/06/19 00:46:05;;;;;;;21.67;9.25;;;;;;;-140.66;100.00;55571.53;5156898;27;20023;-74
2023/06/19 00:48:51;;;;;;;19.63;9.52;;;;;;;-140.66;100.00;55571.53;5140934;27;20031;-75
2023/06/19 00:51:37;;;;;;;14.38;9.30;;;;;;;-140.66;100.00;55571.53;5134508;27;20058;-74
2023/06/19 00:54:23;;;;;;;17.40;9.65;;;;;;;-140.66;100.00;55571.53;5132976;27;20075;-75
2023/06/19 00:57:10;;;;;;;15.48;9.85;;;;;;;-140.66;100.00;55571.53;5134034;27;20118;-74
2023/06/19 00:59:57;;;;;;;20.02;10.18;;;;;;;-140.66;100.00;55571.53;5134289;28;20027;-75
2023/06/19 01:02:42;;;;;;;20.73;10.32;;;;;;;-140.66;100.00;55571.53;5134635;28;20063;-74
2023/06/19 01:05:28;;;;;;;21.80;10.10;;;;;;;-140.66;100.00;55571.53;5135030;28;20353;-75
2023/06/19 01:08:46;;;;;;;16.50;10.10;;;;;;;-140.66;100.00;55571.53;5152052;28;20059;-75
2023/06/19 01:11:37;;;;;;;24.75;10.75;;;;;;;-140.66;100.00;55571.53;5119023;28;20035;-75
2023/06/19 01:14:31;;;;;;;18.13;10.70;;;;;;;-140.66;100.00;55571.53;5134504;28;20023;-74
2023/06/19 01:17:17;;;;;;;19.08;10.07;;;;;;;-140.66;100.00;55571.53;5134376;28;20047;-75
2023/06/19 01:20:10;;;;;;;21.35;11.40;;;;;;;-140.66;100.00;55571.53;5133116;28;20047;-75
2023/06/19 01:22:56;;;;;;;19.52;10.45;;;;;;;-140.66;100.00;55571.53;5133941;28;20045;-74
2023/06/19 01:25:42;;;;;;;28.92;12.35;;;;;;;-140.66;100.00;55571.53;5134410;28;20027;-75
2023/06/19 01:28:28;;;;;;;24.85;11.40;;;;;;;-140.66;100.00;55571.53;5134634;28;20090;-76
2023/06/19 01:31:23;;;;;;;23.60;11.27;;;;;;;-140.66;100.00;55571.53;5134381;28;20110;-75
2023/06/19 01:34:12;;;;;;;21.65;11.25;;;;;;;-140.66;100.00;55571.53;5134164;28;20453;-75
2023/06/19 01:36:59;;;;;;;28.98;11.68;;;;;;;-140.66;100.00;55571.53;5134519;28;20468;-75
2023/06/19 01:39:46;;;;;;;24.30;10.95;;;;;;;-140.66;100.00;55571.53;5133434;28;20464;-74
2023/06/19 01:42:34;;;;;;;27.40;11.57;;;;;;;-140.66;100.00;55571.53;5119052;28;20436;-75
2023/06/19 01:45:20;;;;;;;20.30;10.85;;;;;;;-140.66;100.00;55571.53;5134156;28;20102;-75
2023/06/19 01:48:07;;;;;;;25.05;10.80;;;;;;;-140.66;100.00;55571.53;5133513;28;20448;-75
2023/06/19 01:50:53;;;;;;;21.48;10.90;;;;;;;-140.66;100.00;55571.53;5134416;28;20388;-75
2023/06/19 01:53:39;;;;;;;22.35;11.25;;;;;;;-140.66;100.00;55571.53;5119585;28;20081;-74
2023/06/19 01:56:24;;;;;;;19.40;10.30;;;;;;;-140.66;100.00;55571.53;5134354;28;20042;-75
2023/06/19 01:59:10;;;;;;;17.05;10.57;;;;;;;-140.66;100.00;55571.53;5133783;28;20038;-75
2023/06/19 02:01:56;;;;;;;22.20;10.82;;;;;;;-140.66;100.00;55571.53;5133739;28;20019;-75
2023/06/19 02:04:42;;;;;;;17.42;10.57;;;;;;;-140.66;100.00;55571.53;5133894;28;20051;-74
2023/06/19 02:07:27;;;;;;;20.02;10.52;;;;;;;-140.66;100.00;55571.53;5136651;27;20027;-75
2023/06/19 02:10:13;;;;;;;25.02;11.85;;;;;;;-140.66;100.00;55571.53;5137438;27;20024;-76
2023/06/19 02:12:59;;;;;;;19.77;10.85;;;;;;;-140.66;100.00;55571.53;5137517;27;20452;-75
2023/06/19 02:15:45;;;;;;;20.98;11.25;;;;;;;-140.66;100.00;55571.53;5136840;27;20031;-75
2023/06/19 02:18:31;;;;;;;17.70;10.98;;;;;;;-140.66;100.00;55571.53;5137210;27;20077;-75
2023/06/19 02:21:16;;;;;;;18.27;10.48;;;;;;;-140.66;100.00;55571.53;5137192;27;20035;-75
2023/06/19 02:24:02;;;;;;;20.95;10.85;;;;;;;-140.66;100.00;55571.53;5137617;27;20060;-75
2023/06/19 02:26:48;;;;;;;16.98;10.98;;;;;;;-140.66;100.00;55571.53;5137109;27;20019;-75
2023/06/19 02:29:34;;;;;;;17.90;10.00;;;;;;;-140.66;100.00;55571.53;5121643;27;20444;-75
2023/06/19 02:32:20;;;;;;;19.52;9.95;;;;;;;-140.66;100.00;55571.53;5136985;27;20023;-76
2023/06/19 02:35:08;;;;;;;16.35;10.50;;;;;;;-140.66;100.00;55571.53;5136221;27;20023;-76
2023/06/19 02:37:54;;;;;;;18.42;10.93;;;;;;;-140.66;100.00;55571.53;5122561;27;20054;-76
2023/06/19 02:40:40;;;;;;;15.40;10.43;;;;;;;-140.66;100.00;55571.53;5136672;27;20042;-76
2023/06/19 02:43:26;;;;;;;17.63;10.75;;;;;;;-140.66;100.00;55571.53;5136826;27;20034;-76
2023/06/19 02:46:11;;;;;;;16.55;10.77;;;;;;;-140.66;100.00;55571.53;5137073;27;20034;-74
2023/06/19 02:48:57;;;;;;;18.75;10.43;;;;;;;-140.66;100.00;55571.53;5136711;27;20030;-75
2023/06/19 02:51:43;;;;;;;19.63;11.07;;;;;;;-140.66;100.00;55571.53;5136457;27;20031;-74
2023/06/19 02:54:28;;;;;;;22.25;11.13;;;;;;;-140.66;100.00;55571.53;5136780;27;20023;-74
2023/06/19 02:57:14;;;;;;;19.70;10.38;;;;;;;-140.66;100.00;55571.53;5136461;27;20027;-75
2023/06/19 03:00:00;;;;;;;20.20;10.38;;;;;;;-140.66;100.00;55571.53;5136566;27;20102;-75
2023/06/19 03:02:48;;;;;;;15.95;10.25;;;;;;;-140.66;100.00;55571.53;5121686;27;20027;-75
2023/06/19 03:05:34;;;;;;;19.35;10.25;;;;;;;-140.66;100.00;55571.53;5120765;27;20421;-75
2023/06/19 03:08:19;;;;;;;20.25;10.98;;;;;;;-140.66;100.00;55571.53;5136639;27;20032;-75
2023/06/19 03:11:05;;;;;;;21.33;10.77;;;;;;;-140.66;100.00;55571.53;5121678;27;20041;-73
2023/06/19 03:13:52;;;;;;;20.63;10.93;;;;;;;-140.66;100.00;55571.53;5136565;27;20023;-75
2023/06/19 03:16:38;;;;;;;17.13;10.73;;;;;;;-140.66;100.00;55571.53;5136115;27;20031;-75
2023/06/19 03:19:23;;;;;;;17.35;10.60;;;;;;;-140.66;100.00;55571.53;5135573;27;20050;-75
2023/06/19 03:22:09;;;;;;;20.60;10.93;;;;;;;-140.66;100.00;55571.53;5137041;27;20065;-76
2023/06/19 03:24:55;;;;;;;19.48;10.88;;;;;;;-140.66;100.00;55571.53;5136790;27;20088;-75
2023/06/19 03:27:40;;;;;;;17.98;11.30;;;;;;;-140.66;100.00;55571.53;5136288;27;20035;-75
2023/06/19 03:30:27;;;;;;;25.20;12.25;;;;;;;-140.66;100.00;55571.53;5136178;27;20033;-75
2023/06/19 03:33:12;;;;;;;22.00;12.45;;;;;;;-140.66;100.00;55571.53;5121255;27;20038;-75
2023/06/19 03:35:58;;;;;;;23.70;12.85;;;;;;;-140.66;100.00;55571.53;5136096;27;20049;-75
2023/06/19 03:38:44;;;;;;;26.95;14.85;;;;;;;-140.66;100.00;55571.53;5135704;27;20460;-76
2023/06/19 03:41:30;;;;;;;26.88;13.52;;;;;;;-140.66;100.00;55571.53;5136040;27;20035;-75
2023/06/19 03:44:15;;;;;;;32.17;15.65;;;;;;;-140.66;100.00;55571.53;5135840;27;20444;-75
2023/06/19 03:47:01;;;;;;;26.17;15.93;;;;;;;-140.66;100.00;55571.53;5135572;27;20023;-75
2023/06/19 03:49:48;;;;;;;34.65;15.60;;;;;;;-140.66;100.00;55571.53;5135674;27;20513;-75
2023/06/19 03:52:34;;;;;;;28.75;14.95;;;;;;;-140.66;100.00;55571.53;5135959;27;20105;-74
2023/06/19 03:55:19;;;;;;;28.90;15.73;;;;;;;-140.66;100.00;55571.53;5137388;27;20034;-76
2023/06/19 03:58:06;;;;;;;29.15;16.20;;;;;;;-140.66;100.00;55571.53;5135979;27;20027;-76
2023/06/19 04:00:51;;;;;;;31.42;16.73;;;;;;;-140.66;100.00;55571.53;5135680;27;20037;-75
2023/06/19 04:03:37;;;;;;;25.02;15.63;;;;;;;-140.66;100.00;55571.53;5135834;27;20124;-75
2023/06/19 04:06:23;;;;;;;24.45;16.08;;;;;;;-140.66;100.00;55571.53;5120099;27;20115;-75
2023/06/19 04:09:09;;;;;;;26.50;16.63;;;;;;;-140.66;100.00;55571.53;5135026;27;20015;-76
2023/06/19 04:11:54;;;;;;;28.58;16.33;;;;;;;-140.66;100.00;55571.53;5134894;27;20369;-76
2023/06/19 04:14:40;;;;;;;24.23;16.15;;;;;;;-140.66;100.00;55571.53;5135497;27;20476;-76
2023/06/19 04:17:26;;;;;;;26.52;15.82;;;;;;;-140.66;100.00;55571.53;5119336;27;20460;-76
2023/06/19 04:20:12;;;;;;;27.08;16.17;;;;;;;-140.66;100.00;55571.53;5134587;27;20050;-75
2023/06/19 04:22:57;;;;;;;22.77;16.15;;;;;;;-140.66;100.00;55571.53;5134943;27;20027;-76
2023/06/19 04:25:43;;;;;;;21.95;15.48;;;;;;;-140.66;100.00;55571.53;5134932;27;20082;-77
2023/06/19 04:28:29;;;;;;;22.92;16.15;;;;;;;-140.66;100.00;55571.53;5135072;27;20023;-77
2023/06/19 04:31:17;;;;;;;23.95;16.38;;;;;;;-140.66;100.00;55571.53;5135004;27;20034;-78
2023/06/19 04:34:04;;;;;;;21.38;15.23;;;;;;;-140.66;100.00;55571.53;5135203;27;20095;-77
2023/06/19 04:36:50;;;;;;;25.73;16.23;;;;;;;-140.66;100.00;55571.53;5135128;27;20115;-78
2023/06/19 04:39:36;;;;;;;20.48;15.90;;;;;;;-140.66;100.00;55571.53;5134854;27;20031;-77
2023/06/19 04:42:21;;;;;;;27.75;15.05;;;;;;;-140.66;100.00;55571.53;5120193;27;20023;-78
2023/06/19 04:45:09;;;;;;;20.10;14.43;;;;;;;-140.66;100.00;55571.53;5134645;27;20015;-77
2023/06/19 04:47:55;;;;;;;24.42;15.27;;;;;;;-140.66;100.00;55571.53;5134891;27;20027;-76
2023/06/19 04:50:40;;;;;;;22.67;16.27;;;;;;;-140.66;100.00;55571.53;5134725;27;20026;-78
2023/06/19 04:53:27;;;;;;;19.92;14.45;;;;;;;-140.66;100.00;55571.53;5134361;27;20030;-78
2023/06/19 04:56:16;;;;;;;19.27;15.23;;;;;;;-140.66;100.00;55571.53;5134218;27;20063;-77
2023/06/19 04:59:03;;;;;;;23.67;16.35;;;;;;;-140.66;100.00;55571.53;5135276;28;20023;-78
2023/06/19 05:01:48;;;;;;;19.83;15.60;;;;;;;-140.66;100.00;55571.53;5134566;28;20448;-77
2023/06/19 05:04:34;;;;;;;23.55;15.25;;;;;;;-140.66;100.00;55571.53;5134834;28;20027;-77
2023/06/19 05:07:20;;;;;;;21.15;15.27;;;;;;;-140.66;100.00;55571.53;5134319;28;20027;-76
2023/06/19 05:10:07;;;;;;;18.35;15.50;;;;;;;-140.66;100.00;55571.53;5134386;28;20455;-73
2023/06/19 05:12:52;;;;;;;19.50;14.75;;;;;;;-140.66;100.00;55571.53;5134394;28;20027;-75
2023/06/19 05:15:38;;;;;;;17.23;15.38;;;;;;;-140.66;100.00;55571.53;5133838;28;20038;-74
2023/06/19 05:18:24;;;;;;;21.52;17.20;;;;;;;-140.66;100.00;55571.53;5134109;28;20020;-74
2023/06/19 05:21:09;;;;;;;22.65;16.00;;;;;;;-140.66;100.00;55571.53;5134063;28;20055;-74
2023/06/19 05:23:55;;;;;;;24.77;16.55;;;;;;;-140.66;100.00;55571.53;5134874;28;20464;-75
2023/06/19 05:26:41;;;;;;;22.45;17.80;;;;;;;-140.66;100.00;55571.53;5134512;28;20449;-74
2023/06/19 05:29:26;;;;;;;21.67;16.98;;;;;;;-140.66;100.00;55571.53;5133956;28;20449;-73
2023/06/19 05:32:13;;;;;;;20.08;17.00;;;;;;;-140.66;100.00;55571.53;5134091;28;20364;-74
2023/06/19 05:34:58;;;;;;;24.90;17.42;;;;;;;-140.66;100.00;55571.53;5134423;28;20019;-77
2023/06/19 05:37:45;;;;;;;24.52;17.67;;;;;;;-140.66;100.00;55571.53;5134211;28;20019;-77
2023/06/19 05:40:30;;;;;;;21.75;17.02;;;;;;;-140.66;100.00;55571.53;5119385;27;20057;-78
2023/06/19 05:43:16;;;;;;;24.50;17.25;;;;;;;-140.66;100.00;55571.53;5138402;27;20110;-77
2023/06/19 05:46:02;;;;;;;24.40;18.80;;;;;;;-140.66;100.00;55571.53;5138251;27;20025;-77
2023/06/19 05:48:48;;;;;;;24.40;16.98;;;;;;;-140.66;100.00;55571.53;5138419;27;20392;-78
2023/06/19 05:51:34;;;;;;;20.65;17.38;;;;;;;-140.66;100.00;55571.53;5138760;27;20024;-79
2023/06/19 05:54:19;;;;;;;22.10;17.92;;;;;;;-140.66;100.00;55571.53;5160178;27;20027;-77
2023/06/19 05:57:06;;;;;;;24.60;18.10;;;;;;;-140.66;100.00;55571.53;5138125;27;20027;-78
2023/06/19 05:59:52;;;;;;;28.23;18.88;;;;;;;-140.66;100.00;55571.53;5137803;27;20509;-79
2023/06/19 06:02:38;;;;;;;20.63;17.20;;;;;;;-140.66;100.00;55571.53;5137940;27;20039;-78
2023/06/19 06:05:24;;;;;;;23.08;17.02;;;;;;;-140.66;100.00;55571.53;5122698;27;20031;-79
2023/06/19 06:08:10;;;;;;;24.38;17.17;;;;;;;-140.66;100.00;55571.53;5122230;27;20224;-78
2023/06/19 06:10:56;;;;;;;21.75;15.82;;;;;;;-140.66;100.00;55571.53;5139671;27;20053;-79
2023/06/19 06:13:41;;;;;;;20.38;14.52;;;;;;;-140.66;100.00;55571.53;5155850;27;20019;-78
2023/06/19 06:16:27;;;;;;;26.35;14.85;;;;;;;-140.66;100.00;55571.53;5138274;27;20051;-77
2023/06/19 06:19:13;;;;;;;22.00;15.75;;;;;;;-140.66;100.00;55571.53;5137175;27;20338;-78
2023/06/19 06:21:59;;;;;;;19.27;14.68;;;;;;;-140.66;100.00;55571.53;5137474;27;20381;-78
2023/06/19 06:24:46;;;;;;;24.33;13.35;;;;;;;-140.66;100.00;55571.53;5121880;27;20023;-78
2023/06/19 06:27:32;;;;;;;16.95;13.52;;;;;;;-140.66;100.00;55571.53;5137317;27;20039;-78
2023/06/19 06:30:18;;;;;;;24.52;13.48;;;;;;;-140.66;100.00;55571.53;5137790;27;20034;-77
2023/06/19 06:33:03;;;;;;;21.23;11.98;;;;;;;-140.66;100.00;55571.53;5121415;27;20095;-77
2023/06/19 06:35:51;;;;;;;20.67;12.93;;;;;;;-140.66;100.00;55571.53;5137294;27;20023;-78
2023/06/19 06:38:37;;;;;;;18.13;12.82;;;;;;;-140.66;100.00;55571.53;5136257;27;20020;-79
2023/06/19 06:41:22;;;;;;;15.65;12.13;;;;;;;-140.66;100.00;55571.53;5121020;27;20114;-78
2023/06/19 06:44:08;;;;;;;23.10;12.52;;;;;;;-140.66;100.00;55571.53;5136694;27;20038;-79
2023/06/19 06:46:55;;;;;;;13.43;11.02;;;;;;;-140.66;100.00;55571.53;5136963;27;20027;-78
2023/06/19 06:49:41;;;;;;;13.25;10.52;;;;;;;-140.66;100.00;55571.53;5136635;27;20034;-78
2023/06/19 06:52:27;;;;;;;25.23;11.95;;;;;;;-140.66;100.00;55571.53;5137087;27;20048;-77
2023/06/19 06:55:13;;;;;;;16.38;11.75;;;;;;;-140.66;100.00;55571.53;5120991;27;20038;-77
2023/06/19 06:57:59;;;;;;;19.05;11.35;;;;;;;-140.66;100.00;55571.53;5137816;27;20027;-78
2023/06/19 07:00:45;;;;;;;17.58;11.10;;;;;;;-140.66;100.00;55571.53;5121044;27;20027;-78
2023/06/19 07:03:32;;;;;;;19.75;11.95;;;;;;;-140.66;100.00;55571.53;5136699;27;20035;-78
2023/06/19 07:06:18;;;;;;;16.75;10.80;;;;;;;-140.66;100.00;55571.53;5136617;27;20027;-77
2023/06/19 07:09:03;;;;;;;20.15;11.38;;;;;;;-140.66;100.00;55571.53;5136680;27;20030;-77
2023/06/19 07:11:49;;;;;;;15.23;10.57;;;;;;;-140.66;100.00;55571.53;5121676;27;20023;-78
2023/06/19 07:14:35;;;;;;;13.52;11.82;;;;;;;-140.66;100.00;55571.53;5121412;27;20129;-78
2023/06/19 07:17:20;;;;;;;24.10;11.30;;;;;;;-140.66;100.00;55571.53;5135961;27;20023;-78
2023/06/19 07:20:07;;;;;;;15.55;11.98;;;;;;;-140.66;100.00;55571.53;5120584;27;20099;-78
2023/06/19 07:22:53;;;;;;;37.13;14.13;;;;;;;-140.66;100.00;55571.53;5135936;27;20023;-78
2023/06/19 07:25:39;;;;;;;24.05;18.52;;;;;;;-140.66;100.00;55571.53;5120998;27;20114;-79
2023/06/19 07:28:24;;;;;;;14.27;10.23;;;;;;;-140.66;100.00;55571.53;5136123;27;20026;-77
2023/06/19 07:31:10;;;;;;;14.93;10.95;;;;;;;-140.66;100.00;55571.53;5136089;27;20027;-77
2023/06/19 07:33:56;;;;;;;16.98;10.70;;;;;;;-140.66;100.00;55571.53;5135721;27;20023;-77
2023/06/19 07:36:42;;;;;;;12.35;9.73;;;;;;;-140.66;100.00;55571.53;5136225;27;20088;-78
2023/06/19 07:39:27;;;;;;;14.10;9.65;;;;;;;-140.66;100.00;55571.53;5135397;27;20445;-78
2023/06/19 07:42:14;;;;;;;13.93;9.50;;;;;;;-140.66;100.00;55571.53;5136494;27;20035;-78
2023/06/19 07:45:00;;;;;;;14.95;10.30;;;;;;;-140.66;100.00;55571.53;5136008;27;20065;-77
2023/06/19 07:47:54;;;;;;;12.88;9.75;;;;;;;-140.66;100.00;55571.53;5135897;27;20027;-77
2023/06/19 07:50:40;;;;;;;11.65;9.00;;;;;;;-140.66;100.00;55571.53;5135769;27;20023;-78
2023/06/19 07:53:26;;;;;;;10.70;9.48;;;;;;;-140.66;100.00;55571.53;5135186;27;20034;-78
2023/06/19 07:56:12;;;;;;;13.55;9.95;;;;;;;-140.66;100.00;55571.53;5135216;27;20088;-78
2023/06/19 07:58:57;;;;;;;12.13;9.27;;;;;;;-140.66;100.00;55571.53;5135708;27;20041;-77
2023/06/19 08:01:43;;;;;;;15.95;9.45;;;;;;;-140.66;100.00;55571.53;5134677;27;20023;-78
2023/06/19 08:04:29;;;;;;;15.73;11.30;;;;;;;-140.66;100.00;55571.53;5133384;27;20048;-78
2023/06/19 08:07:15;;;;;;;40.30;13.75;;;;;;;-140.66;100.00;55571.53;5135048;27;20394;-78
2023/06/19 08:10:03;;;;;;;15.43;11.40;;;;;;;-140.66;100.00;55571.53;5121061;27;20031;-77
2023/06/19 08:12:49;;;;;;;13.10;11.07;;;;;;;-140.66;100.00;55571.53;5140678;27;20023;-82
2023/06/19 08:15:35;;;;;;;22.05;12.65;;;;;;;-140.66;100.00;55571.53;5139266;27;20417;-81
2023/06/19 08:18:20;;;;;;;16.98;11.95;;;;;;;-140.66;100.00;55571.53;5140179;27;20026;-81
2023/06/19 08:21:06;;;;;;;16.60;11.68;;;;;;;-140.66;100.00;55571.53;5138655;27;20082;-81
2023/06/19 08:23:52;;;;;;;12.60;10.93;;;;;;;-140.66;100.00;55571.53;5138925;27;20144;-82
2023/06/19 08:26:38;;;;;;;17.33;11.68;;;;;;;-140.66;100.00;55571.53;5127314;27;20031;-82
2023/06/19 08:29:23;;;;;;;16.80;11.20;;;;;;;-140.66;100.00;55571.53;5124013;27;20030;-82
2023/06/19 08:32:09;;;;;;;18.58;11.93;;;;;;;-140.66;100.00;55571.53;5141696;27;20034;-82
2023/06/19 08:34:55;;;;;;;15.20;12.23;;;;;;;-140.66;100.00;55571.53;5139092;27;20115;-81
2023/06/19 08:37:41;;;;;;;23.50;11.55;;;;;;;-140.66;100.00;55571.53;5142016;27;20027;-81
2023/06/19 08:40:26;;;;;;;14.57;10.57;;;;;;;-140.66;100.00;55571.53;5143214;27;20457;-81
2023/06/19 08:43:12;;;;;;;13.07;9.27;;;;;;;-140.66;100.00;55571.53;5133197;27;20040;-81
2023/06/19 08:46:11;;;;;;;17.00;9.95;;;;;;;-140.66;100.00;55571.53;5136490;27;20031;-81
2023/06/19 08:48:57;;;;;;;13.45;9.40;;;;;;;-140.66;100.00;55571.53;5126805;27;20114;-82
2023/06/19 08:51:43;;;;;;;15.30;10.20;;;;;;;-140.66;100.00;55571.53;5139470;27;20027;-82
2023/06/19 08:54:29;;;;;;;14.00;9.73;;;;;;;-140.66;100.00;55571.53;5124442;27;20452;-82
2023/06/19 08:57:15;;;;;;;10.10;8.88;;;;;;;-140.66;100.00;55571.53;5141751;27;20035;-82
2023/06/19 09:00:01;;;;;;;10.23;7.50;;;;;;;-140.66;100.00;55571.53;5142202;28;20456;-82
2023/06/19 09:02:46;;;;;;;15.15;7.82;;;;;;;-140.66;100.00;55571.53;5150934;28;20031;-83
2023/06/19 09:05:32;;;;;;;7.85;5.90;;;;;;;-140.66;100.00;55571.53;5141020;28;20084;-82
2023/06/19 09:08:20;;;;;;;13.77;6.18;;;;;;;-140.66;100.00;55571.53;5138932;28;20027;-82
2023/06/19 09:11:05;;;;;;;14.25;5.68;;;;;;;-140.66;100.00;55571.53;5141079;28;20365;-82
2023/06/19 09:14:00;;;;;;;11.48;5.90;;;;;;;-140.66;100.00;55571.53;5139070;28;20046;-82
2023/06/19 09:16:46;;;;;;;15.38;5.82;;;;;;;-140.66;100.00;55571.53;5144938;27;20459;-83
2023/06/19 09:19:36;;;;;;;13.07;4.97;;;;;;;-140.66;100.00;55571.53;5145267;27;20039;-82
2023/06/19 09:22:22;;;;;;;4.30;3.70;;;;;;;-140.66;100.00;55571.53;5149023;27;20030;-83
2023/06/19 09:25:10;;;;;;;7.35;3.50;;;;;;;-140.66;100.00;55571.53;5149289;27;20051;-83
2023/06/19 09:27:57;;;;;;;9.45;6.30;;;;;;;-140.66;100.00;55571.53;5148603;27;20034;-83
2023/06/19 09:30:56;;;;;;;8.60;6.35;;;;;;;-140.66;100.00;55571.53;5134187;27;20053;-81
2023/06/19 09:33:41;;;;;;;10.70;6.35;;;;;;;-140.66;100.00;55571.53;5131442;27;20448;-82
2023/06/19 09:36:28;;;;;;;6.15;5.50;;;;;;;-140.66;100.00;55571.53;5149482;27;20096;-82
2023/06/19 09:39:16;;;;;;;7.60;5.45;;;;;;;-140.66;100.00;55571.53;5148000;27;20019;-83
2023/06/19 09:42:03;;;;;;;7.50;4.88;;;;;;;-140.66;100.00;55571.53;5147849;27;20097;-83
2023/06/19 09:44:51;;;;;;;4.80;4.00;;;;;;;-140.66;100.00;55571.53;5147889;27;20039;-83
2023/06/19 09:47:46;;;;;;;8.18;4.13;;;;;;;-140.66;100.00;55571.53;5146476;27;20038;-82
2023/06/19 09:50:34;;;;;;;6.25;3.25;;;;;;;-140.66;100.00;55571.53;5131864;27;20037;-82
2023/06/19 09:53:20;;;;;;;3.22;2.90;;;;;;;-140.66;100.00;55571.53;5130357;27;20034;-82
2023/06/19 09:56:08;;;;;;;5.47;3.20;;;;;;;-140.66;100.00;55571.53;5144996;27;20110;-79
2023/06/19 09:58:56;;;;;;;34.85;4.65;;;;;;;-140.66;100.00;55571.53;5138451;27;20031;-78
2023/06/19 10:01:42;;;;;;;6.18;3.53;;;;;;;-140.66;100.00;55571.53;5137286;27;20027;-78
2023/06/19 10:04:29;;;;;;;6.20;3.20;;;;;;;-140.66;100.00;55571.53;5138071;27;20167;-79
2023/06/19 10:07:32;;;;;;;6.07;2.88;;;;;;;-140.66;100.00;55571.53;5123221;27;20035;-78
2023/06/19 10:10:26;;;;;;;14.32;3.45;;;;;;;-140.66;100.00;55571.53;5137381;27;20023;-79
2023/06/19 10:13:14;;;;;;;5.03;3.40;;;;;;;-140.66;100.00;55571.53;5137761;27;20313;-79
2023/06/19 10:16:00;;;;;;;4.25;2.92;;;;;;;-140.66;100.00;55571.53;5136975;27;20042;-78
2023/06/19 10:18:47;;;;;;;3.15;2.70;;;;;;;-140.66;100.00;55571.53;5136566;27;20457;-78
2023/06/19 10:21:47;;;;;;;5.53;3.30;;;;;;;-140.66;100.00;55571.53;5136103;28;20087;-78
2023/06/19 10:24:34;;;;;;;6.45;3.60;;;;;;;-140.66;100.00;55571.53;5136765;28;20456;-78
2023/06/19 10:27:25;;;;;;;5.15;4.10;;;;;;;-140.66;100.00;55571.53;5120395;28;20038;-78
2023/06/19 10:30:18;;;;;;;6.55;4.63;;;;;;;-140.66;100.00;55571.53;5135864;28;20022;-78
2023/06/19 10:33:04;;;;;;;6.68;4.57;;;;;;;-140.66;100.00;55571.53;5136161;28;20413;-78
2023/06/19 10:35:50;;;;;;;6.90;4.78;;;;;;;-140.66;100.00;55571.53;5120836;28;20475;-78
2023/06/19 10:38:35;;;;;;;5.85;4.90;;;;;;;-140.66;100.00;55571.53;5136439;28;20035;-77
2023/06/19 10:41:25;;;;;;;6.38;5.30;;;;;;;-140.66;100.00;55571.53;5136240;28;20023;-78
2023/06/19 10:44:13;;;;;;;6.78;5.10;;;;;;;-140.66;100.00;55571.53;5135002;28;20042;-77
2023/06/19 10:46:59;;;;;;;6.32;5.10;;;;;;;-140.66;100.00;55571.53;5120097;28;20023;-78
2023/06/19 10:49:45;;;;;;;9.45;5.20;;;;;;;-140.66;100.00;55571.53;5120127;28;20050;-77
2023/06/19 10:52:31;;;;;;;5.68;4.97;;;;;;;-140.66;100.00;55571.53;5135892;28;20023;-78
2023/06/19 10:55:17;;;;;;;14.50;5.13;;;;;;;-140.66;100.00;55571.53;5135410;28;20027;-79
2023/06/19 10:58:02;;;;;;;8.88;6.05;;;;;;;-140.66;100.00;55571.53;5136636;28;20027;-78
2023/06/19 11:00:48;;;;;;;11.38;7.50;;;;;;;-140.66;100.00;55571.53;5135853;28;20031;-79
2023/06/19 11:03:34;;;;;;;9.20;8.07;;;;;;;-140.66;100.00;55571.53;5120830;28;20023;-78
2023/06/19 11:06:20;;;;;;;11.57;8.45;;;;;;;-140.66;100.00;55571.53;5120776;28;20026;-79
2023/06/19 11:09:08;;;;;;;10.90;7.43;;;;;;;-140.66;100.00;55571.53;5135321;28;20019;-78
2023/06/19 11:11:53;;;;;;;10.70;7.28;;;;;;;-140.66;100.00;55571.53;5135863;28;20444;-78
2023/06/19 11:14:41;;;;;;;11.40;7.68;;;;;;;-140.66;100.00;55571.53;5135538;28;20073;-78
2023/06/19 11:17:27;;;;;;;10.20;7.75;;;;;;;-140.66;100.00;55571.53;5134797;28;20091;-79
2023/06/19 11:20:16;;;;;;;8.90;7.20;;;;;;;-140.66;100.00;55571.53;5080024;27;1134495;-75
2023/06/19 11:23:02;;;;;;;14.05;7.72;;;;;;;-140.66;100.00;55571.53;5120586;27;20039;-75
2023/06/19 11:25:48;;;;;;;7.80;6.18;;;;;;;-140.66;100.00;55571.53;5120162;27;20027;-76
2023/06/19 11:28:33;;;;;;;9.18;5.80;;;;;;;-140.66;100.00;55571.53;5135057;27;20460;-77
2023/06/19 11:31:25;;;;;;;5.88;5.15;;;;;;;-140.66;100.00;55571.53;5121296;27;20027;-76
2023/06/19 11:34:11;;;;;;;11.05;5.65;;;;;;;-140.66;100.00;55571.53;5122319;27;20068;-77
2023/06/19 11:36:57;;;;;;;6.63;5.00;;;;;;;-140.66;100.00;55571.53;5136204;27;20471;-76
2023/06/19 11:39:47;;;;;;;11.02;6.00;;;;;;;-140.66;100.00;55571.53;5134268;27;20426;-76
2023/06/19 11:42:43;;;;;;;8.85;6.85;;;;;;;-140.66;100.00;55571.53;5135709;27;20048;-76
2023/06/19 11:45:29;;;;;;;9.15;6.47;;;;;;;-140.66;100.00;55571.53;5135973;27;20080;-77
2023/06/19 11:48:22;;;;;;;8.02;6.05;;;;;;;-140.66;100.00;55571.53;5135749;27;20175;-76
2023/06/19 11:51:09;;;;;;;10.68;7.00;;;;;;;-140.66;100.00;55571.53;5141495;27;20105;-75
2023/06/19 11:53:54;;;;;;;13.80;7.75;;;;;;;-140.66;100.00;55571.53;5147722;27;20022;-75
2023/06/19 11:56:40;;;;;;;8.13;6.80;;;;;;;-140.66;100.00;55571.53;5151493;27;20027;-75
2023/06/19 11:59:26;;;;;;;9.25;6.45;;;;;;;-140.66;100.00;55571.53;5144396;27;20103;-79
2023/06/19 12:02:12;;;;;;;8.40;6.10;;;;;;;-140.66;100.00;55571.53;5137050;27;20030;-73
2023/06/19 12:04:59;;;;;;;12.75;7.18;;;;;;;-140.66;100.00;55571.53;5135673;27;20027;-73
2023/06/19 12:07:45;;;;;;;11.15;7.40;;;;;;;-140.66;100.00;55571.53;5135362;27;20089;-74
2023/06/19 12:10:31;;;;;;;8.70;6.75;;;;;;;-140.66;100.00;55571.53;5138832;27;20073;-74
2023/06/19 12:13:17;;;;;;;8.25;6.15;;;;;;;-140.66;100.00;55571.53;5135561;27;20475;-74
2023/06/19 12:16:03;;;;;;;9.45;7.00;;;;;;;-140.66;100.00;55571.53;5136514;27;20037;-73
2023/06/19 12:18:49;;;;;;;13.77;7.80;;;;;;;-140.66;100.00;55571.53;5147337;27;20126;-72
2023/06/19 12:21:35;;;;;;;13.32;7.40;;;;;;;-140.66;100.00;55571.53;5143333;27;20042;-75
2023/06/19 12:24:20;;;;;;;12.90;7.05;;;;;;;-140.66;100.00;55571.53;5134224;27;20023;-75
2023/06/19 12:27:06;;;;;;;10.35;6.85;;;;;;;-140.66;100.00;55571.53;5135017;27;20015;-75